Time;durP1;ratioP1;P1;durP2;ratioP2;P2;SDS_P1;SDS_P2;PMS_P1;PMS_P2;Temp;Humidity;BMP_temperature;BMP_pressure;BME280_temperature;BME280_humidity;BME280_pressure;Samples;Min_cycle;Max_cycle;Signal;HPM_P1;HPM_P2
2021/08/17 00:00:35;;;;;;;0.60;0.60;;;13.70;99.90;;;;;;5001485;28;20193;-83
2021/08/17 00:03:02;;;;;;;0.50;0.40;;;13.50;99.90;;;;;;5002444;28;20207;-84
2021/08/17 00:05:29;;;;;;;0.50;0.40;;;13.60;99.90;;;;;;5002037;28;20444;-84
2021/08/17 00:07:56;;;;;;;0.50;0.40;;;13.50;99.90;;;;;;5001962;28;20216;-84
2021/08/17 00:10:24;;;;;;;0.60;0.57;;;13.50;99.90;;;;;;5000628;28;20694;-83
2021/08/17 00:12:51;;;;;;;0.50;0.40;;;13.50;99.90;;;;;;5000957;28;20447;-83
2021/08/17 00:15:18;;;;;;;0.50;0.40;;;13.40;99.90;;;;;;5001572;28;20447;-84
2021/08/17 00:17:45;;;;;;;0.50;0.40;;;13.30;99.90;;;;;;5001838;28;20204;-84
2021/08/17 00:20:13;;;;;;;9.20;8.67;;;13.20;99.90;;;;;;5001624;28;20968;-85
2021/08/17 00:22:40;;;;;;;0.50;0.40;;;13.10;99.90;;;;;;5001502;28;20454;-85
2021/08/17 00:25:09;;;;;;;0.50;0.40;;;13.00;99.90;;;;;;5001055;28;20468;-84
2021/08/17 00:27:38;;;;;;;0.50;0.40;;;12.90;99.90;;;;;;5001401;28;20586;-84
2021/08/17 00:30:07;;;;;;;0.50;0.40;;;12.90;99.90;;;;;;5001230;28;20454;-81
2021/08/17 00:32:34;;;;;;;1.33;1.10;;;12.80;99.90;;;;;;5001020;28;20284;-84
2021/08/17 00:35:01;;;;;;;0.50;0.40;;;12.80;99.90;;;;;;5001794;28;20536;-84
2021/08/17 00:37:28;;;;;;;0.50;0.38;;;12.70;99.90;;;;;;5001387;28;20220;-84
2021/08/17 00:39:54;;;;;;;0.50;0.40;;;12.70;99.90;;;;;;5001278;28;20199;-81
2021/08/17 00:42:21;;;;;;;0.50;0.40;;;12.70;99.90;;;;;;5002114;28;20211;-84
2021/08/17 00:44:51;;;;;;;1.25;1.25;;;12.60;99.90;;;;;;5000840;28;20221;-82
2021/08/17 00:47:18;;;;;;;1.17;1.08;;;12.50;99.90;;;;;;5001132;28;20232;-84
2021/08/17 00:49:45;;;;;;;0.50;0.40;;;12.40;99.90;;;;;;5000432;28;20193;-84
2021/08/17 00:52:13;;;;;;;0.50;0.40;;;12.40;99.90;;;;;;4999724;28;20207;-84
2021/08/17 00:54:40;;;;;;;0.50;0.40;;;12.40;99.90;;;;;;4999381;28;20283;-84
2021/08/17 00:57:07;;;;;;;0.50;0.40;;;12.30;99.90;;;;;;4999201;28;20209;-84
2021/08/17 00:59:34;;;;;;;0.98;0.98;;;12.30;99.90;;;;;;4998901;28;20270;-84
2021/08/17 01:02:03;;;;;;;0.50;0.40;;;12.20;99.90;;;;;;4998655;28;20205;-84
2021/08/17 01:04:30;;;;;;;3.50;1.30;;;12.20;99.90;;;;;;4998469;28;20221;-84
2021/08/17 01:06:57;;;;;;;1.10;1.10;;;12.20;99.90;;;;;;4999970;28;20193;-84
2021/08/17 01:09:24;;;;;;;2.42;1.77;;;12.20;99.90;;;;;;4999975;28;20693;-83
2021/08/17 01:11:51;;;;;;;0.50;0.40;;;12.10;99.90;;;;;;4999069;28;20211;-83
2021/08/17 01:14:20;;;;;;;1.25;0.70;;;12.10;99.90;;;;;;4999620;28;20220;-82
2021/08/17 01:16:48;;;;;;;1.40;0.88;;;12.10;99.90;;;;;;4999539;28;20199;-84
2021/08/17 01:19:19;;;;;;;0.50;0.40;;;12.10;99.90;;;;;;4999839;28;20194;-83
2021/08/17 01:21:46;;;;;;;2.75;0.80;;;12.10;99.90;;;;;;4999818;28;20210;-83
2021/08/17 01:24:13;;;;;;;1.60;0.40;;;12.10;99.90;;;;;;4998474;28;20216;-83
2021/08/17 01:26:41;;;;;;;0.50;0.40;;;12.10;99.90;;;;;;4998933;28;20204;-83
2021/08/17 01:29:10;;;;;;;30.30;2.97;;;12.00;99.90;;;;;;4999086;28;20320;-83
2021/08/17 01:31:37;;;;;;;0.50;0.40;;;12.00;99.90;;;;;;4997934;28;20478;-84
2021/08/17 01:34:05;;;;;;;0.60;0.47;;;12.00;99.90;;;;;;4999373;28;20590;-84
2021/08/17 01:36:32;;;;;;;0.50;0.40;;;12.00;99.90;;;;;;5000236;28;20676;-84
2021/08/17 01:38:58;;;;;;;0.50;0.40;;;12.00;99.90;;;;;;4999702;28;20493;-84
2021/08/17 01:41:25;;;;;;;1.15;1.05;;;11.90;99.90;;;;;;4999488;28;20193;-82
2021/08/17 01:43:53;;;;;;;1.30;1.20;;;11.90;99.90;;;;;;4999021;28;20228;-84
2021/08/17 01:46:20;;;;;;;1.60;1.50;;;12.00;99.90;;;;;;4999176;28;20199;-83
2021/08/17 01:48:47;;;;;;;0.50;0.40;;;11.90;99.90;;;;;;4999203;28;20214;-84
2021/08/17 01:51:14;;;;;;;0.50;0.40;;;12.00;99.90;;;;;;4999080;28;20294;-85
2021/08/17 01:53:41;;;;;;;0.50;0.40;;;11.90;99.90;;;;;;4999370;28;20709;-83
2021/08/17 01:56:09;;;;;;;0.60;0.60;;;12.00;99.90;;;;;;4999059;28;20210;-84
2021/08/17 01:58:37;;;;;;;0.93;0.70;;;12.00;99.90;;;;;;4997756;28;20194;-83
2021/08/17 02:01:06;;;;;;;1.17;1.02;;;12.00;99.90;;;;;;5000798;28;20206;-83
2021/08/17 02:03:33;;;;;;;1.70;1.60;;;12.00;99.90;;;;;;5003624;28;20217;-85
2021/08/17 02:06:01;;;;;;;0.95;0.95;;;12.00;99.90;;;;;;5002777;28;20200;-83
2021/08/17 02:08:28;;;;;;;9.50;2.25;;;11.90;99.90;;;;;;5002969;28;20221;-83
2021/08/17 02:10:55;;;;;;;1.77;1.30;;;12.00;99.90;;;;;;5002791;28;20201;-83
2021/08/17 02:13:23;;;;;;;0.60;0.60;;;12.00;99.90;;;;;;5001896;28;20234;-85
2021/08/17 02:15:50;;;;;;;0.50;0.40;;;12.00;99.90;;;;;;5003248;28;20206;-79
2021/08/17 02:18:18;;;;;;;0.77;0.73;;;12.00;99.90;;;;;;5002237;28;20191;-82
2021/08/17 02:20:45;;;;;;;6.43;3.13;;;12.00;99.90;;;;;;5002040;28;20203;-84
2021/08/17 02:23:13;;;;;;;0.50;0.40;;;12.00;99.90;;;;;;5001419;28;20219;-83
2021/08/17 02:25:40;;;;;;;3.72;1.85;;;12.00;99.90;;;;;;5002807;28;20662;-84
2021/08/17 02:28:07;;;;;;;0.50;0.40;;;12.00;99.90;;;;;;5002552;28;20213;-83
2021/08/17 02:30:34;;;;;;;0.50;0.40;;;12.00;99.90;;;;;;5001963;28;20277;-83
2021/08/17 02:33:01;;;;;;;1.08;0.63;;;12.00;99.90;;;;;;5002469;28;20227;-83
2021/08/17 02:35:29;;;;;;;0.50;0.40;;;12.00;99.90;;;;;;5001253;28;20204;-84
2021/08/17 02:37:55;;;;;;;1.35;0.77;;;11.90;99.90;;;;;;5002933;28;20279;-84
2021/08/17 02:40:22;;;;;;;0.60;0.60;;;11.90;99.90;;;;;;5001699;28;20298;-83
2021/08/17 02:42:49;;;;;;;1.63;1.52;;;12.00;99.90;;;;;;5001994;28;20210;-84
2021/08/17 02:45:16;;;;;;;0.85;0.82;;;12.00;99.90;;;;;;5002007;28;20206;-84
2021/08/17 02:47:42;;;;;;;7.85;2.25;;;12.00;99.90;;;;;;5002005;28;20198;-83
2021/08/17 02:50:10;;;;;;;1.40;1.33;;;12.00;99.90;;;;;;5002623;28;20204;-81
2021/08/17 02:52:38;;;;;;;0.50;0.40;;;12.10;99.90;;;;;;5001697;28;20205;-84
2021/08/17 02:55:07;;;;;;;10.15;2.55;;;12.10;99.90;;;;;;5000657;28;20236;-84
2021/08/17 02:57:34;;;;;;;3.58;3.38;;;12.20;99.90;;;;;;5001277;28;20291;-83
2021/08/17 03:00:00;;;;;;;2.15;1.20;;;12.30;99.90;;;;;;5001632;28;20207;-83
2021/08/17 03:02:27;;;;;;;5.47;3.13;;;12.20;99.90;;;;;;5001145;28;20202;-84
2021/08/17 03:04:54;;;;;;;3.25;1.48;;;12.20;99.90;;;;;;5001405;28;20221;-83
2021/08/17 03:07:21;;;;;;;0.50;0.40;;;12.20;99.90;;;;;;5001640;28;20204;-84
2021/08/17 03:09:49;;;;;;;0.50;0.40;;;12.20;99.90;;;;;;5002022;28;20292;-84
2021/08/17 03:12:15;;;;;;;2.80;2.60;;;12.20;99.90;;;;;;5001472;28;20202;-85
2021/08/17 03:14:42;;;;;;;3.25;1.05;;;12.30;99.90;;;;;;5001630;28;20214;-84
2021/08/17 03:17:09;;;;;;;0.50;0.40;;;12.30;99.90;;;;;;5001002;28;20653;-83
2021/08/17 03:19:36;;;;;;;6.68;4.72;;;12.20;99.90;;;;;;4997689;28;20199;-84
2021/08/17 03:22:03;;;;;;;6.03;1.77;;;12.30;99.90;;;;;;4997548;28;20210;-83
2021/08/17 03:24:30;;;;;;;2.42;1.95;;;12.30;99.90;;;;;;4997232;28;20222;-84
2021/08/17 03:26:58;;;;;;;1.67;1.58;;;12.30;99.90;;;;;;4997708;28;20225;-83
2021/08/17 03:29:24;;;;;;;6.40;1.95;;;12.30;99.90;;;;;;4998275;28;20227;-82
2021/08/17 03:31:51;;;;;;;1.05;1.05;;;12.30;99.90;;;;;;4999810;28;20536;-84
2021/08/17 03:34:18;;;;;;;0.70;0.70;;;12.30;99.90;;;;;;4999977;28;20220;-84
2021/08/17 03:36:45;;;;;;;12.93;1.83;;;12.30;99.90;;;;;;5000279;28;20201;-83
2021/08/17 03:39:12;;;;;;;3.88;2.70;;;12.30;99.90;;;;;;5000497;28;20215;-83
2021/08/17 03:41:38;;;;;;;3.42;1.70;;;12.40;99.90;;;;;;5000307;28;20207;-84
2021/08/17 03:44:07;;;;;;;5.18;3.33;;;12.40;99.90;;;;;;4999865;28;20222;-84
2021/08/17 03:46:33;;;;;;;2.25;1.00;;;12.40;99.90;;;;;;4999374;28;20227;-83
2021/08/17 03:49:00;;;;;;;0.70;0.70;;;12.40;99.90;;;;;;5000552;28;20219;-83
2021/08/17 03:51:27;;;;;;;8.23;2.15;;;12.40;99.90;;;;;;5001358;28;20207;-85
2021/08/17 03:53:54;;;;;;;17.58;4.70;;;12.40;99.90;;;;;;5002459;28;20235;-84
2021/08/17 03:56:20;;;;;;;1.73;1.48;;;12.50;99.90;;;;;;5001918;28;20644;-85
2021/08/17 03:58:47;;;;;;;7.65;2.70;;;12.40;99.90;;;;;;5002591;28;20189;-85
2021/08/17 04:01:17;;;;;;;4.13;2.28;;;12.40;99.90;;;;;;5001826;28;20210;-84
2021/08/17 04:03:44;;;;;;;2.15;2.05;;;12.40;99.90;;;;;;5002429;28;20221;-85
2021/08/17 04:06:11;;;;;;;2.05;1.95;;;12.40;99.90;;;;;;5002200;28;20229;-84
2021/08/17 04:08:38;;;;;;;1.17;1.08;;;12.40;99.90;;;;;;4998854;28;20224;-85
2021/08/17 04:11:05;;;;;;;0.88;0.65;;;12.40;99.90;;;;;;4997008;28;20292;-85
2021/08/17 04:13:32;;;;;;;4.40;4.03;;;12.40;99.90;;;;;;4998809;28;20729;-84
2021/08/17 04:15:58;;;;;;;9.07;2.20;;;12.50;99.90;;;;;;4996962;28;20222;-85
2021/08/17 04:18:26;;;;;;;9.18;5.28;;;12.50;99.90;;;;;;4997363;28;20204;-84
2021/08/17 04:20:53;;;;;;;10.52;5.75;;;12.60;99.90;;;;;;4996476;28;20200;-83
2021/08/17 04:23:20;;;;;;;6.75;2.58;;;12.60;99.90;;;;;;4996849;28;20224;-84
2021/08/17 04:25:48;;;;;;;3.97;3.63;;;12.60;99.90;;;;;;4996882;28;20220;-84
2021/08/17 04:28:14;;;;;;;2.83;2.63;;;12.60;99.90;;;;;;4997072;28;20620;-83
2021/08/17 04:30:41;;;;;;;1.55;1.45;;;12.60;99.90;;;;;;4996084;28;20220;-83
2021/08/17 04:33:08;;;;;;;5.13;4.63;;;12.70;99.90;;;;;;4996848;28;20220;-83
2021/08/17 04:35:36;;;;;;;1.00;0.95;;;12.70;99.90;;;;;;4996573;28;20201;-83
2021/08/17 04:38:03;;;;;;;0.50;0.40;;;12.80;99.90;;;;;;4996707;28;20212;-83
2021/08/17 04:40:30;;;;;;;1.33;1.23;;;12.80;99.90;;;;;;4995088;28;20289;-82
2021/08/17 04:42:57;;;;;;;0.60;0.50;;;12.80;99.90;;;;;;4995006;28;20197;-81
2021/08/17 04:45:25;;;;;;;1.65;1.08;;;12.80;99.90;;;;;;4995497;28;20560;-81
2021/08/17 04:47:53;;;;;;;1.13;1.13;;;12.80;99.90;;;;;;4995740;28;20217;-82
2021/08/17 04:50:21;;;;;;;4.63;0.88;;;12.80;99.90;;;;;;4994952;28;20854;-82
2021/08/17 04:52:50;;;;;;;0.50;0.40;;;12.80;99.90;;;;;;4994912;28;20199;-81
2021/08/17 04:55:17;;;;;;;0.50;0.40;;;12.80;99.90;;;;;;4995203;28;20203;-84
2021/08/17 04:57:48;;;;;;;11.15;1.58;;;12.80;99.90;;;;;;4994365;28;20209;-82
2021/08/17 05:00:17;;;;;;;1.35;1.25;;;12.80;99.90;;;;;;4993834;28;20568;-82
2021/08/17 05:02:44;;;;;;;7.05;3.83;;;12.80;99.90;;;;;;4994546;28;20204;-83
2021/08/17 05:05:11;;;;;;;0.50;0.50;;;12.90;99.90;;;;;;4994401;28;20225;-84
2021/08/17 05:07:38;;;;;;;5.90;2.35;;;12.90;99.90;;;;;;4995018;28;20206;-82
2021/08/17 05:10:07;;;;;;;2.05;1.95;;;13.00;99.90;;;;;;4997647;28;20274;-80
2021/08/17 05:12:35;;;;;;;3.45;1.98;;;13.00;99.90;;;;;;5002402;28;20189;-81
2021/08/17 05:15:02;;;;;;;0.50;0.40;;;13.00;99.90;;;;;;5014217;28;20737;-81
2021/08/17 05:17:29;;;;;;;16.50;2.78;;;13.00;99.90;;;;;;4994205;28;20201;-79
2021/08/17 05:19:56;;;;;;;3.33;3.03;;;13.10;99.90;;;;;;4993494;28;20676;-78
2021/08/17 05:22:22;;;;;;;2.30;1.70;;;13.20;99.90;;;;;;4994281;28;20201;-83
2021/08/17 05:24:49;;;;;;;1.73;0.68;;;13.30;99.90;;;;;;4994170;28;20467;-77
2021/08/17 05:27:17;;;;;;;2.30;2.13;;;13.40;99.90;;;;;;4994856;28;20197;-82
2021/08/17 05:29:44;;;;;;;0.50;0.40;;;13.40;99.90;;;;;;5014476;28;20716;-82
2021/08/17 05:32:11;;;;;;;2.35;1.27;;;13.50;99.90;;;;;;5014219;28;20204;-83
2021/08/17 05:34:38;;;;;;;0.60;0.50;;;13.50;99.90;;;;;;5012765;28;20223;-82
2021/08/17 05:37:05;;;;;;;3.20;1.83;;;13.50;99.90;;;;;;5014603;28;20453;-83
2021/08/17 05:39:32;;;;;;;22.57;3.33;;;13.50;99.90;;;;;;5014125;28;20203;-83
2021/08/17 05:41:58;;;;;;;1.13;0.90;;;13.50;99.90;;;;;;5013567;28;20457;-82
2021/08/17 05:44:26;;;;;;;2.40;1.63;;;13.40;99.90;;;;;;5014343;28;20474;-83
2021/08/17 05:46:53;;;;;;;0.63;0.63;;;13.30;99.90;;;;;;5014061;28;20468;-79
2021/08/17 05:49:20;;;;;;;8.45;5.50;;;13.30;99.90;;;;;;5013822;28;20214;-82
2021/08/17 05:51:47;;;;;;;0.50;0.40;;;13.30;99.90;;;;;;5014263;28;20250;-83
2021/08/17 05:54:14;;;;;;;2.60;2.40;;;13.40;99.90;;;;;;5014927;28;20467;-82
2021/08/17 05:56:41;;;;;;;0.50;0.40;;;13.40;99.90;;;;;;5015194;28;21006;-83
2021/08/17 05:59:07;;;;;;;7.43;4.13;;;13.60;99.90;;;;;;5016326;28;20431;-83
2021/08/17 06:01:35;;;;;;;0.50;0.50;;;13.70;99.90;;;;;;5013871;28;20446;-83
2021/08/17 06:04:02;;;;;;;1.23;1.23;;;13.90;99.90;;;;;;5013957;28;20222;-83
2021/08/17 06:06:29;;;;;;;2.70;2.40;;;14.10;99.90;;;;;;5014283;28;20470;-83
2021/08/17 06:08:56;;;;;;;0.50;0.40;;;14.10;99.90;;;;;;5014400;28;20457;-80
2021/08/17 06:11:22;;;;;;;2.10;1.23;;;14.10;99.90;;;;;;5014071;28;20448;-83
2021/08/17 06:13:51;;;;;;;7.37;2.30;;;14.10;99.90;;;;;;5014730;28;20826;-81
2021/08/17 06:16:18;;;;;;;1.73;0.70;;;14.20;99.90;;;;;;5014338;28;20443;-83
2021/08/17 06:18:46;;;;;;;4.13;1.63;;;14.30;99.90;;;;;;5014465;28;20513;-82
2021/08/17 06:21:12;;;;;;;2.10;1.47;;;14.40;99.90;;;;;;5013841;28;20455;-83
2021/08/17 06:23:39;;;;;;;2.13;2.00;;;14.50;99.90;;;;;;5013907;28;20463;-83
2021/08/17 06:26:06;;;;;;;3.10;2.73;;;14.60;99.90;;;;;;5014501;28;20434;-82
2021/08/17 06:28:33;;;;;;;2.87;2.67;;;14.70;99.90;;;;;;5014360;28;20446;-84
2021/08/17 06:30:59;;;;;;;6.47;3.30;;;14.80;99.90;;;;;;5013715;28;20911;-79
2021/08/17 06:33:26;;;;;;;10.23;4.33;;;15.10;99.90;;;;;;5014589;28;20467;-82
2021/08/17 06:35:54;;;;;;;33.07;4.87;;;15.20;99.90;;;;;;5014010;28;20529;-81
2021/08/17 06:38:21;;;;;;;2.47;0.77;;;15.20;99.90;;;;;;5014051;28;20446;-83
2021/08/17 06:40:48;;;;;;;18.03;4.70;;;15.10;99.90;;;;;;5013324;28;20446;-83
2021/08/17 06:43:14;;;;;;;1.63;1.53;;;15.00;99.90;;;;;;5014488;28;20470;-84
2021/08/17 06:45:41;;;;;;;6.97;4.87;;;15.10;99.90;;;;;;5014002;28;20451;-83
2021/08/17 06:48:08;;;;;;;1.50;1.40;;;15.20;99.90;;;;;;5016402;28;20442;-84
2021/08/17 06:50:35;;;;;;;4.93;4.50;;;15.10;99.90;;;;;;5017685;28;20485;-84
2021/08/17 06:53:03;;;;;;;6.67;3.87;;;15.10;99.90;;;;;;5017256;28;20454;-83
2021/08/17 06:55:30;;;;;;;0.50;0.37;;;15.10;99.90;;;;;;5017217;28;20829;-83
2021/08/17 06:57:57;;;;;;;3.30;2.70;;;15.20;99.90;;;;;;5018201;28;20447;-83
2021/08/17 07:00:23;;;;;;;0.50;0.40;;;15.30;99.90;;;;;;5016670;28;20446;-81
2021/08/17 07:02:50;;;;;;;5.67;5.13;;;15.40;99.90;;;;;;5017478;28;20443;-83
2021/08/17 07:05:17;;;;;;;0.60;0.60;;;15.50;99.90;;;;;;5017325;28;20443;-83
2021/08/17 07:07:43;;;;;;;9.03;3.97;;;15.80;99.90;;;;;;5016759;28;20806;-83
2021/08/17 07:10:13;;;;;;;1.27;1.20;;;16.00;99.90;;;;;;5017553;28;20475;-83
2021/08/17 07:12:40;;;;;;;6.53;3.90;;;16.00;99.90;;;;;;5017272;28;20875;-82
2021/08/17 07:15:08;;;;;;;3.07;2.57;;;16.00;99.90;;;;;;5016787;28;20463;-83
2021/08/17 07:17:36;;;;;;;1.10;1.10;;;16.10;99.90;;;;;;5016836;28;20813;-83
2021/08/17 07:20:04;;;;;;;1.20;0.80;;;16.00;99.90;;;;;;5016951;28;20539;-83
2021/08/17 07:22:31;;;;;;;10.17;2.30;;;16.10;99.90;;;;;;5016449;28;20451;-82
2021/08/17 07:24:57;;;;;;;13.70;4.00;;;16.20;99.90;;;;;;5016486;28;20468;-81
2021/08/17 07:27:25;;;;;;;0.77;0.77;;;16.10;99.90;;;;;;5016500;28;20944;-83
2021/08/17 07:29:52;;;;;;;19.67;1.53;;;16.10;99.90;;;;;;5016786;28;21012;-83
2021/08/17 07:32:19;;;;;;;6.83;1.67;;;16.20;99.90;;;;;;5016492;28;20477;-84
2021/08/17 07:34:46;;;;;;;5.87;3.27;;;16.10;99.90;;;;;;5017014;28;20810;-83
2021/08/17 07:37:12;;;;;;;4.97;2.83;;;16.10;99.90;;;;;;5016388;28;20444;-82
2021/08/17 07:39:39;;;;;;;1.70;1.60;;;16.10;99.90;;;;;;5016985;28;20439;-83
2021/08/17 07:42:06;;;;;;;0.50;0.40;;;16.20;99.90;;;;;;5016494;28;20443;-83
2021/08/17 07:44:34;;;;;;;2.10;2.00;;;16.30;99.90;;;;;;5016945;28;20550;-84
2021/08/17 07:47:01;;;;;;;9.30;1.57;;;16.50;99.90;;;;;;5016834;28;20466;-83
2021/08/17 07:49:28;;;;;;;9.43;5.60;;;16.80;99.90;;;;;;5016219;28;20448;-85
2021/08/17 07:51:55;;;;;;;18.53;4.63;;;17.10;99.90;;;;;;5016763;28;20439;-83
2021/08/17 07:54:22;;;;;;;4.20;2.30;;;17.50;99.90;;;;;;5016358;28;20463;-83
2021/08/17 07:56:49;;;;;;;2.90;2.80;;;17.70;99.90;;;;;;5015911;28;20451;-83
2021/08/17 07:59:16;;;;;;;1.93;1.63;;;17.80;99.90;;;;;;5016044;28;20781;-80
2021/08/17 08:01:44;;;;;;;6.97;3.33;;;18.30;99.90;;;;;;5016814;28;20439;-84
2021/08/17 08:04:11;;;;;;;0.50;0.30;;;19.50;99.90;;;;;;5017635;28;20465;-83
2021/08/17 08:06:37;;;;;;;5.23;1.07;;;19.70;99.90;;;;;;5017906;28;20946;-84
2021/08/17 08:09:04;;;;;;;7.23;3.57;;;19.30;99.90;;;;;;5017147;28;20447;-82
2021/08/17 08:11:31;;;;;;;3.93;3.73;;;19.00;99.90;;;;;;5016032;28;20467;-83
2021/08/17 08:13:58;;;;;;;0.60;0.50;;;18.30;99.90;;;;;;5017214;28;20986;-84
2021/08/17 08:16:25;;;;;;;1.37;1.27;;;18.20;99.90;;;;;;5017637;28;20459;-82
2021/08/17 08:18:54;;;;;;;1.77;0.73;;;18.30;99.90;;;;;;5016959;28;20455;-83
2021/08/17 08:21:20;;;;;;;6.40;3.27;;;18.00;99.90;;;;;;5015656;28;20442;-82
2021/08/17 08:23:47;;;;;;;0.50;0.50;;;17.90;99.90;;;;;;5017196;28;20460;-83
2021/08/17 08:26:14;;;;;;;3.80;1.53;;;17.90;99.90;;;;;;5017193;28;20446;-82
2021/08/17 08:28:41;;;;;;;10.23;6.33;;;17.90;99.90;;;;;;5017064;28;20446;-82
2021/08/17 08:31:08;;;;;;;4.77;4.30;;;17.80;99.90;;;;;;5015786;28;20486;-83
2021/08/17 08:33:34;;;;;;;8.50;5.83;;;17.80;99.90;;;;;;5016032;28;20464;-80
2021/08/17 08:36:03;;;;;;;3.00;2.80;;;17.90;99.90;;;;;;5015908;28;20447;-82
2021/08/17 08:38:29;;;;;;;10.50;4.20;;;18.00;99.90;;;;;;5016413;28;20446;-83
2021/08/17 08:40:56;;;;;;;6.47;5.87;;;18.00;99.90;;;;;;5015682;28;20442;-83
2021/08/17 08:43:24;;;;;;;1.47;1.37;;;18.00;99.90;;;;;;5015634;28;21019;-83
2021/08/17 08:45:51;;;;;;;0.97;0.97;;;17.90;99.90;;;;;;5015738;28;20445;-83
2021/08/17 08:48:20;;;;;;;2.30;2.17;;;18.00;99.90;;;;;;5015265;28;20954;-84
2021/08/17 08:50:47;;;;;;;3.57;2.97;;;17.70;99.90;;;;;;5016533;28;20475;-84
2021/08/17 08:53:16;;;;;;;0.50;0.30;;;17.50;99.90;;;;;;5018619;28;20475;-85
2021/08/17 08:55:45;;;;;;;0.60;0.50;;;17.40;99.90;;;;;;5018009;28;20447;-86
2021/08/17 08:58:12;;;;;;;1.93;0.60;;;17.40;99.90;;;;;;5017758;28;20448;-84
2021/08/17 09:00:38;;;;;;;2.40;1.83;;;17.20;99.90;;;;;;5017214;28;20437;-84
2021/08/17 09:03:05;;;;;;;2.23;2.03;;;17.20;99.90;;;;;;5017201;28;20451;-85
2021/08/17 09:05:32;;;;;;;2.07;1.97;;;17.40;99.90;;;;;;5017049;28;20539;-85
2021/08/17 09:08:04;;;;;;;0.60;0.50;;;17.50;99.90;;;;;;5016499;28;20445;-83
2021/08/17 09:10:32;;;;;;;0.77;0.73;;;17.50;99.90;;;;;;5015237;28;20580;-84
2021/08/17 09:13:00;;;;;;;1.20;1.17;;;17.60;99.90;;;;;;5016113;28;20447;-83
2021/08/17 09:15:30;;;;;;;4.10;1.50;;;17.70;99.90;;;;;;5015575;28;20461;-83
2021/08/17 09:18:00;;;;;;;24.10;5.00;;;17.60;99.90;;;;;;5009278;28;20460;-80
2021/08/17 09:20:32;;;;;;;1.00;0.90;;;17.40;99.90;;;;;;5004773;28;20933;-82
2021/08/17 09:22:59;;;;;;;0.80;0.80;;;17.20;99.90;;;;;;5014800;28;20839;-83
2021/08/17 09:25:34;;;;;;;8.83;4.00;;;17.10;99.90;;;;;;5014581;28;20450;-83
2021/08/17 09:28:25;;;;;;;0.50;0.50;;;17.00;99.90;;;;;;5014752;28;20538;-82
2021/08/17 09:30:52;;;;;;;0.73;0.57;;;17.10;99.90;;;;;;5014697;28;20483;-83
2021/08/17 09:33:19;;;;;;;0.50;0.50;;;17.30;99.90;;;;;;5014602;28;20459;-83
2021/08/17 09:35:45;;;;;;;2.10;1.23;;;17.40;99.90;;;;;;5015328;28;20446;-83
2021/08/17 09:38:14;;;;;;;1.83;1.70;;;17.40;99.90;;;;;;5014819;28;20451;-84
2021/08/17 09:40:42;;;;;;;0.80;0.80;;;17.60;99.90;;;;;;5014633;28;20447;-83
2021/08/17 09:43:14;;;;;;;1.20;1.13;;;17.80;99.90;;;;;;5015270;28;20467;-84
2021/08/17 09:45:41;;;;;;;8.13;1.43;;;17.90;99.90;;;;;;5015625;28;20447;-83
2021/08/17 09:48:11;;;;;;;6.93;4.73;;;18.10;99.90;;;;;;5015522;28;20503;-83
2021/08/17 09:50:39;;;;;;;3.53;3.23;;;18.20;99.90;;;;;;5013495;28;20482;-83
2021/08/17 09:53:11;;;;;;;4.00;3.27;;;18.30;99.90;;;;;;5014948;28;20977;-82
2021/08/17 09:55:45;;;;;;;3.50;3.20;;;18.40;99.90;;;;;;5015164;28;20452;-84
2021/08/17 09:58:20;;;;;;;0.53;0.50;;;18.50;99.90;;;;;;5017460;28;20445;-82
2021/08/17 10:00:48;;;;;;;1.67;1.57;;;18.50;99.90;;;;;;5014531;28;20443;-83
2021/08/17 10:03:16;;;;;;;4.47;2.00;;;18.50;99.90;;;;;;5014958;28;20468;-83
2021/08/17 10:05:43;;;;;;;0.77;0.40;;;18.40;99.90;;;;;;5015338;28;20451;-82
2021/08/17 10:08:11;;;;;;;2.30;1.43;;;18.50;99.90;;;;;;5015267;28;20519;-83
2021/08/17 10:10:38;;;;;;;0.50;0.40;;;18.50;99.90;;;;;;5015816;28;20483;-84
2021/08/17 10:13:10;;;;;;;0.60;0.60;;;18.30;99.90;;;;;;5015868;28;20441;-84
2021/08/17 10:15:37;;;;;;;0.70;0.60;;;18.20;99.90;;;;;;5016062;28;20439;-82
2021/08/17 10:18:04;;;;;;;0.50;0.30;;;18.00;99.90;;;;;;5015018;28;20448;-83
2021/08/17 10:20:32;;;;;;;0.50;0.40;;;18.10;99.90;;;;;;5014592;28;20935;-83
2021/08/17 10:22:59;;;;;;;1.77;1.67;;;18.30;99.90;;;;;;5018486;28;20435;-84
2021/08/17 10:25:26;;;;;;;6.50;2.77;;;18.50;99.90;;;;;;5019384;28;20447;-83
2021/08/17 10:27:52;;;;;;;0.80;0.63;;;18.60;99.90;;;;;;5018210;28;20441;-83
2021/08/17 10:30:22;;;;;;;0.50;0.30;;;18.60;99.90;;;;;;5018228;28;20830;-83
2021/08/17 10:32:54;;;;;;;4.80;2.70;;;18.80;99.90;;;;;;5018635;28;20437;-79
2021/08/17 10:35:55;;;;;;;0.50;0.40;;;19.00;99.90;;;;;;5017979;28;20452;-84
2021/08/17 10:38:49;;;;;;;1.83;1.63;;;19.30;99.90;;;;;;5018634;28;20793;-83
2021/08/17 10:41:26;;;;;;;1.63;1.57;;;19.10;99.90;;;;;;5017888;28;20416;-82
2021/08/17 10:44:06;;;;;;;0.50;0.40;;;18.70;99.90;;;;;;5018433;28;20463;-84
2021/08/17 10:46:58;;;;;;;0.50;0.40;;;18.50;99.90;;;;;;5018336;28;21015;-84
2021/08/17 10:49:44;;;;;;;11.73;4.17;;;18.60;99.90;;;;;;5018460;28;20441;-82
2021/08/17 10:52:13;;;;;;;0.50;0.40;;;18.60;99.90;;;;;;5018909;28;20464;-83
2021/08/17 10:54:41;;;;;;;2.23;0.83;;;18.60;99.90;;;;;;5017940;28;20469;-81
2021/08/17 10:57:19;;;;;;;11.43;3.93;;;18.70;99.90;;;;;;5018387;28;20448;-82
2021/08/17 10:59:48;;;;;;;1.27;1.17;;;18.70;99.90;;;;;;5018095;28;20455;-83
2021/08/17 11:02:21;;;;;;;1.33;1.33;;;18.70;99.90;;;;;;5017529;28;20459;-84
2021/08/17 11:04:49;;;;;;;3.90;2.00;;;18.70;99.90;;;;;;5018551;28;20463;-80
2021/08/17 11:07:24;;;;;;;0.70;0.60;;;18.80;99.90;;;;;;5017691;28;20448;-82
2021/08/17 11:09:52;;;;;;;1.57;1.43;;;18.70;99.90;;;;;;5018058;28;20420;-83
2021/08/17 11:12:20;;;;;;;0.60;0.60;;;18.80;99.90;;;;;;5017592;28;20475;-83
2021/08/17 11:14:48;;;;;;;0.50;0.40;;;19.00;99.90;;;;;;5018102;28;21045;-81
2021/08/17 11:17:18;;;;;;;1.67;1.50;;;19.10;99.90;;;;;;5017829;28;20446;-82
2021/08/17 11:19:48;;;;;;;9.10;2.30;;;19.00;99.90;;;;;;5018187;28;20772;-82
2021/08/17 11:22:16;;;;;;;1.63;1.20;;;18.80;99.90;;;;;;5018043;28;20857;-82
2021/08/17 11:24:45;;;;;;;2.30;1.17;;;18.40;99.90;;;;;;5020957;28;20899;-81
2021/08/17 11:27:14;;;;;;;1.47;0.90;;;18.30;99.90;;;;;;5023564;28;20512;-81
2021/08/17 11:29:42;;;;;;;0.50;0.40;;;18.10;99.90;;;;;;5019968;28;20447;-82
2021/08/17 11:32:11;;;;;;;0.80;0.67;;;18.30;99.90;;;;;;5016800;28;20495;-83
2021/08/17 11:34:41;;;;;;;0.60;0.60;;;18.50;99.90;;;;;;5017836;28;20455;-83
2021/08/17 11:37:11;;;;;;;0.50;0.50;;;18.40;99.90;;;;;;5017704;28;20440;-83
2021/08/17 11:39:41;;;;;;;1.47;1.40;;;18.60;99.90;;;;;;5018417;28;20435;-82
2021/08/17 11:42:10;;;;;;;2.97;1.27;;;18.90;99.90;;;;;;5016425;28;20424;-83
2021/08/17 11:44:37;;;;;;;5.23;2.00;;;19.60;99.90;;;;;;5016632;28;20458;-80
2021/08/17 11:47:10;;;;;;;1.23;1.13;;;19.80;99.90;;;;;;5021809;28;20445;-83
2021/08/17 11:49:39;;;;;;;2.53;1.27;;;19.50;99.90;;;;;;5018082;28;20431;-82
2021/08/17 11:52:09;;;;;;;4.83;1.60;;;19.50;99.90;;;;;;5016890;28;20476;-83
2021/08/17 11:54:46;;;;;;;0.90;0.90;;;19.40;99.90;;;;;;5068392;22;20490;-84
2021/08/17 11:57:13;;;;;;;3.27;2.07;;;19.10;99.90;;;;;;4998012;28;20431;-86
2021/08/17 11:59:43;;;;;;;1.43;0.60;;;18.70;99.90;;;;;;5004470;28;20439;-84
2021/08/17 12:02:11;;;;;;;1.93;1.20;;;18.60;99.90;;;;;;5003792;28;20459;-86
2021/08/17 12:04:39;;;;;;;1.90;0.80;;;18.50;99.90;;;;;;5004420;28;20842;-87
2021/08/17 12:07:10;;;;;;;0.80;0.80;;;18.20;99.90;;;;;;5006653;28;20444;-84
2021/08/17 12:09:38;;;;;;;0.93;0.93;;;18.30;99.90;;;;;;5005368;28;20496;-87
2021/08/17 12:12:06;;;;;;;1.87;1.77;;;18.50;99.90;;;;;;5006221;28;20473;-87
2021/08/17 12:14:33;;;;;;;6.73;1.73;;;18.50;99.90;;;;;;5008969;28;20494;-87
2021/08/17 12:17:00;;;;;;;1.60;1.10;;;18.30;99.90;;;;;;5005392;28;20447;-87
2021/08/17 12:19:27;;;;;;;1.53;0.67;;;18.30;99.90;;;;;;5005112;28;20448;-88
2021/08/17 12:21:58;;;;;;;3.60;1.43;;;18.40;99.90;;;;;;5005546;28;20528;-87
2021/08/17 12:24:27;;;;;;;0.90;0.53;;;18.30;99.90;;;;;;5006444;28;20515;-88
2021/08/17 12:26:55;;;;;;;0.70;0.53;;;18.00;99.90;;;;;;5005497;28;20479;-88
2021/08/17 12:29:24;;;;;;;0.70;0.70;;;18.00;99.90;;;;;;5005679;28;20958;-87
2021/08/17 12:31:52;;;;;;;1.43;1.37;;;18.00;99.90;;;;;;5003742;28;20487;-87
2021/08/17 12:34:19;;;;;;;0.50;0.40;;;18.00;99.90;;;;;;5004955;28;20475;-86
2021/08/17 12:36:48;;;;;;;1.43;0.97;;;17.90;99.90;;;;;;5004545;28;20438;-87
2021/08/17 12:39:21;;;;;;;1.57;0.83;;;17.80;99.90;;;;;;5004787;28;20531;-86
2021/08/17 12:41:49;;;;;;;2.53;1.10;;;17.50;99.90;;;;;;5003844;28;20521;-87
2021/08/17 12:44:17;;;;;;;0.93;0.93;;;17.20;99.90;;;;;;5004377;28;20480;-87
2021/08/17 12:47:02;;;;;;;0.50;0.50;;;17.00;99.90;;;;;;5005787;28;20529;-88
2021/08/17 12:49:43;;;;;;;1.03;1.03;;;16.90;99.90;;;;;;5005283;28;20526;-88